YVR weather

Vancouver International Airport
Vancouver, British Columbia, Canada

Public forecast

Using degrees Celsius for public forecast. Weather courtesy of forecast.io.

METAR (pilot weather report)

Retrieved 2018/02/24 10:30 UTC (1 hour ago):

CYVR 241030Z 08010KT 1 1/4SM -SN FEW003 OVC012 M00/M01 A2988 RMK SF2SC6 SLP121

TAF (pilot weather forecast)

Retrieved 2018/02/24 09:42 UTC (2 hours ago):

TAF TAF CYVR 240838Z 2409/2512 08012KT 2SM -SHSN FEW004 OVC009 TEMPO 2409/2411 6SM -SHSN OVC012 PROB40 2409/2411 1/2SM SHSN VV005 FM241100 08010KT P6SM SCT015 OVC020 TEMPO 2411/2413 4SM -SHSN OVC008 BECMG 2411/2413 VRB03KT FM241500 33006KT P6SM FEW030 SCT050 FM241800 11008KT P6SM FEW220 FM250000 07008KT P6SM BKN060 BKN120 TEMPO 2500/2503 P6SM -RA FM250300 06008KT P6SM -SHRA SCT015 BKN030 OVC050 RMK NXT FCST BY 241200Z